Time;durP1;ratioP1;P1;durP2;ratioP2;P2;SDS_P1;SDS_P2;PMS_P1;PMS_P2;Temp;Humidity;BMP_temperature;BMP_pressure;BME280_temperature;BME280_humidity;BME280_pressure;Samples;Min_cycle;Max_cycle;Signal;HPM_P1;HPM_P2
2022/04/22 00:00:07;;;;;;;15.68;10.30;;;;;;;9.67;76.35;95262.53;5047290;28;20025;-69
2022/04/22 00:02:33;;;;;;;13.82;8.60;;;;;;;9.66;75.89;95266.22;5047670;28;20116;-70
2022/04/22 00:04:58;;;;;;;15.27;9.38;;;;;;;9.67;75.69;95263.38;5046784;28;20211;-70
2022/04/22 00:07:24;;;;;;;16.60;9.73;;;;;;;9.68;75.98;95254.31;5048098;28;20045;-68
2022/04/22 00:09:49;;;;;;;15.95;10.77;;;;;;;9.59;77.42;95247.34;5046913;28;20033;-69
2022/04/22 00:12:14;;;;;;;19.52;10.55;;;;;;;9.53;77.08;95246.19;5047612;28;20028;-69
2022/04/22 00:14:40;;;;;;;12.18;9.43;;;;;;;9.55;76.98;95252.19;5046681;28;20037;-69
2022/04/22 00:17:06;;;;;;;18.17;10.88;;;;;;;9.58;76.85;95245.66;5047230;28;20024;-69
2022/04/22 00:19:31;;;;;;;15.77;10.68;;;;;;;9.55;77.19;95237.97;5047280;28;20142;-70
2022/04/22 00:21:57;;;;;;;21.38;11.00;;;;;;;9.54;77.31;95230.97;5046069;28;20013;-70
2022/04/22 00:24:22;;;;;;;17.88;10.55;;;;;;;9.45;78.29;95212.25;5046861;28;20033;-69
2022/04/22 00:26:47;;;;;;;18.30;11.57;;;;;;;9.53;76.81;95211.38;5046618;28;20044;-69
2022/04/22 00:29:13;;;;;;;18.92;12.65;;;;;;;9.58;76.33;95211.69;5047320;28;20353;-70
2022/04/22 00:31:39;;;;;;;23.48;14.80;;;;;;;9.43;77.60;95214.25;5046627;28;20480;-70
2022/04/22 00:34:04;;;;;;;26.10;17.85;;;;;;;9.27;78.35;95213.34;5064332;28;20052;-69
2022/04/22 00:36:30;;;;;;;25.58;17.55;;;;;;;9.15;79.63;95207.56;5066616;28;20126;-70
2022/04/22 00:38:56;;;;;;;29.83;17.70;;;;;;;9.15;80.03;95217.41;5066606;28;20024;-69
2022/04/22 00:41:22;;;;;;;29.73;17.67;;;;;;;9.22;79.12;95225.59;5066899;28;20093;-70
2022/04/22 00:43:49;;;;;;;34.00;20.92;;;;;;;9.21;78.84;95230.09;5066084;28;20454;-70
2022/04/22 00:46:15;;;;;;;33.50;19.67;;;;;;;9.25;78.95;95233.28;5066856;28;20028;-69
2022/04/22 00:48:40;;;;;;;29.55;18.75;;;;;;;9.25;78.79;95236.75;5066127;28;20048;-69
2022/04/22 00:51:07;;;;;;;31.35;18.58;;;;;;;9.26;78.73;95234.94;5066598;28;20039;-70
2022/04/22 00:53:39;;;;;;;30.25;19.00;;;;;;;9.19;79.45;95225.94;5066202;28;20028;-69
2022/04/22 00:56:05;;;;;;;27.65;18.90;;;;;;;9.17;79.57;95215.41;5066580;28;20075;-69
2022/04/22 00:58:31;;;;;;;29.38;18.65;;;;;;;9.17;79.41;95215.41;5066605;28;20131;-69
2022/04/22 01:00:56;;;;;;;27.50;18.90;;;;;;;9.16;79.91;95189.66;5065545;28;20107;-69
2022/04/22 01:03:22;;;;;;;27.90;17.55;;;;;;;9.17;79.72;95187.81;5066488;28;20032;-69
2022/04/22 01:11:17;;;;;;;27.77;15.13;;;;;;;9.33;78.00;95166.34;5066114;28;20565;-70
2022/04/22 01:13:43;;;;;;;24.33;15.30;;;;;;;9.33;77.80;95165.47;5031162;28;20048;-70
2022/04/22 01:16:09;;;;;;;27.15;17.90;;;;;;;9.30;78.38;95152.47;5066330;28;20028;-68
2022/04/22 01:18:35;;;;;;;25.38;16.77;;;;;;;9.30;78.05;95149.78;5065604;28;20407;-69
2022/04/22 01:21:01;;;;;;;23.77;15.93;;;;;;;9.36;77.57;95149.91;5066129;28;20078;-70
2022/04/22 01:23:27;;;;;;;28.30;16.05;;;;;;;9.44;77.27;95151.72;5065678;28;20509;-70
2022/04/22 01:25:53;;;;;;;26.30;16.70;;;;;;;9.37;77.60;95156.09;5066075;28;20032;-70
2022/04/22 01:28:19;;;;;;;26.05;17.17;;;;;;;9.19;78.76;95154.50;5065252;28;20593;-70
2022/04/22 01:30:45;;;;;;;31.58;17.88;;;;;;;9.21;78.62;95148.97;5047750;28;20440;-70
2022/04/22 01:33:10;;;;;;;28.30;17.77;;;;;;;9.19;78.56;95133.09;5065488;28;20056;-69
2022/04/22 01:35:35;;;;;;;29.30;17.58;;;;;;;9.24;78.51;95122.72;5064935;28;20025;-69
2022/04/22 01:38:01;;;;;;;25.23;15.80;;;;;;;9.26;78.24;95126.06;5066017;28;20024;-69
2022/04/22 01:40:27;;;;;;;23.80;15.65;;;;;;;9.29;77.77;95122.19;5065050;28;20028;-71
2022/04/22 01:42:53;;;;;;;25.02;15.77;;;;;;;9.30;77.78;95125.69;5065713;28;20102;-70
2022/04/22 01:45:19;;;;;;;30.17;18.48;;;;;;;9.32;77.89;95121.00;5064897;28;20104;-70
2022/04/22 01:47:44;;;;;;;31.35;20.00;;;;;;;9.24;78.36;95132.56;5065773;28;20024;-69
2022/04/22 01:50:09;;;;;;;31.80;20.00;;;;;;;9.23;78.36;95137.09;5065130;28;20029;-70
2022/04/22 01:52:40;;;;;;;31.95;21.38;;;;;;;9.24;78.10;95140.59;5065254;28;20120;-69
2022/04/22 01:55:06;;;;;;;43.47;24.45;;;;;;;9.14;78.33;95148.88;5065632;28;20039;-69
2022/04/22 01:57:31;;;;;;;36.67;22.42;;;;;;;8.98;79.11;95155.94;5064992;28;20460;-70
2022/04/22 01:59:59;;;;;;;31.67;22.13;;;;;;;9.00;79.17;95167.31;5065308;28;20029;-70
2022/04/22 02:02:24;;;;;;;36.10;21.35;;;;;;;9.02;79.20;95153.75;5064600;28;20398;-68
2022/04/22 02:04:49;;;;;;;31.25;21.10;;;;;;;9.01;79.27;95162.81;5065511;28;20028;-70
2022/04/22 02:07:15;;;;;;;29.15;21.10;;;;;;;9.01;79.31;95178.84;5064576;28;20035;-69
2022/04/22 02:09:40;;;;;;;27.30;17.63;;;;;;;8.94;78.52;95193.91;5065062;28;20028;-69
2022/04/22 02:12:06;;;;;;;23.70;16.63;;;;;;;8.86;78.58;95197.44;5065176;28;20475;-70
2022/04/22 02:14:33;;;;;;;26.08;18.45;;;;;;;8.89;79.19;95197.09;5064477;28;20185;-69
2022/04/22 02:16:59;;;;;;;30.27;19.67;;;;;;;8.88;78.87;95190.91;5065402;28;20031;-71
2022/04/22 02:19:25;;;;;;;28.45;18.75;;;;;;;8.93;78.79;95189.59;5064643;28;20024;-70
2022/04/22 02:21:51;;;;;;;28.50;20.15;;;;;;;8.96;78.37;95194.59;5065257;28;20125;-70
2022/04/22 02:24:16;;;;;;;28.23;19.13;;;;;;;8.96;78.39;95191.91;5064553;28;20024;-70
2022/04/22 02:29:26;;;;;;;30.05;19.25;;;;;;;8.91;78.39;95173.72;5065124;28;20036;-69
2022/04/22 02:31:52;;;;;;;29.88;19.15;;;;;;;8.88;78.71;95163.34;5064380;28;20025;-69
2022/04/22 02:34:21;;;;;;;31.38;19.58;;;;;;;8.82;79.05;95170.22;5064620;28;20048;-69
2022/04/22 02:36:48;;;;;;;26.20;17.45;;;;;;;8.81;79.15;95157.00;5064322;28;20097;-69
2022/04/22 02:39:13;;;;;;;27.58;16.77;;;;;;;8.83;79.05;95139.81;5065063;28;20085;-70
2022/04/22 02:47:07;;;;;;;21.75;14.02;;;;;;;8.77;79.31;95137.81;5064620;28;20040;-69
2022/04/22 02:49:32;;;;;;;25.88;15.40;;;;;;;8.76;79.55;95152.19;5064239;28;20025;-68
2022/04/22 02:51:58;;;;;;;20.52;14.20;;;;;;;8.83;78.80;95155.84;5064935;28;20434;-70
2022/04/22 02:54:23;;;;;;;19.60;13.73;;;;;;;8.85;78.98;95156.50;5064039;28;20051;-69
2022/04/22 02:56:50;;;;;;;20.48;14.00;;;;;;;8.86;78.38;95152.84;5064762;28;20024;-69
2022/04/22 02:59:17;;;;;;;22.55;14.32;;;;;;;8.77;78.99;95154.69;5064234;28;20024;-69
2022/04/22 03:01:43;;;;;;;18.98;14.02;;;;;;;8.77;79.00;95132.44;5046256;28;20457;-70
2022/04/22 03:04:09;;;;;;;18.30;13.48;;;;;;;8.76;78.76;95139.66;5046963;28;20499;-70
2022/04/22 03:06:34;;;;;;;18.83;13.55;;;;;;;8.75;78.77;95154.03;5063875;28;20410;-70
2022/04/22 03:09:00;;;;;;;20.80;13.27;;;;;;;8.73;78.78;95147.19;5065077;28;20479;-70
2022/04/22 03:11:25;;;;;;;19.80;14.43;;;;;;;8.67;79.36;95147.88;5064240;28;20028;-69
2022/04/22 03:13:51;;;;;;;19.60;14.13;;;;;;;8.68;79.14;95155.72;5064219;28;20032;-69
2022/04/22 03:16:18;;;;;;;20.67;14.38;;;;;;;8.66;79.20;95155.06;5064018;28;20056;-69
2022/04/22 03:18:43;;;;;;;21.13;14.40;;;;;;;8.65;79.49;95153.41;5046268;28;20469;-70
2022/04/22 03:21:09;;;;;;;24.70;15.07;;;;;;;8.63;79.16;95150.06;5064476;28;20456;-70
2022/04/22 03:23:34;;;;;;;23.08;14.25;;;;;;;8.59;79.27;95152.22;5063763;28;20025;-70
2022/04/22 03:25:59;;;;;;;22.05;14.20;;;;;;;8.61;79.32;95163.59;5064494;28;20025;-69
2022/04/22 03:28:25;;;;;;;22.98;15.10;;;;;;;8.60;79.28;95169.97;5064204;28;20027;-69
2022/04/22 03:30:51;;;;;;;19.08;13.27;;;;;;;8.62;79.29;95172.47;5064420;28;20041;-71
2022/04/22 03:33:17;;;;;;;19.85;13.85;;;;;;;8.65;79.46;95172.13;5063779;28;20044;-70
2022/04/22 03:35:43;;;;;;;23.58;15.43;;;;;;;8.65;79.19;95180.13;5064470;28;20036;-70
2022/04/22 03:38:11;;;;;;;21.33;14.30;;;;;;;8.64;78.97;95175.81;5064318;28;20017;-70
2022/04/22 03:40:36;;;;;;;21.55;15.32;;;;;;;8.62;79.38;95170.63;5063611;28;20024;-70
2022/04/22 03:43:02;;;;;;;18.77;13.95;;;;;;;8.63;78.94;95177.63;5064369;28;20031;-69
2022/04/22 03:45:28;;;;;;;24.85;16.10;;;;;;;8.63;79.19;95179.47;5063930;28;20017;-69
2022/04/22 03:47:54;;;;;;;20.20;13.88;;;;;;;8.68;78.92;95187.81;5064188;28;20063;-69
2022/04/22 03:50:19;;;;;;;23.10;15.45;;;;;;;8.74;78.79;95188.94;5063918;28;20051;-68
2022/04/22 03:52:45;;;;;;;22.00;15.52;;;;;;;8.75;78.88;95178.09;5064038;28;20510;-69
2022/04/22 03:55:10;;;;;;;22.50;14.27;;;;;;;8.69;79.52;95181.44;5063756;28;20021;-69
2022/04/22 04:00:19;;;;;;;22.58;15.38;;;;;;;8.71;79.67;95190.13;5068137;28;20090;-69
2022/04/22 04:02:44;;;;;;;24.58;15.30;;;;;;;8.74;79.69;95183.59;5066902;28;20446;-70
2022/04/22 04:05:10;;;;;;;21.80;15.80;;;;;;;8.75;79.31;95185.28;5067721;28;20478;-69
2022/04/22 04:07:36;;;;;;;24.55;16.30;;;;;;;8.78;78.93;95188.47;5067250;28;20565;-69
2022/04/22 04:18:13;;;;;;;24.08;16.67;;;;;;;8.75;79.48;95179.94;5067543;28;20187;-69
2022/04/22 04:23:22;;;;;;;26.50;16.70;;;;;;;8.74;79.71;95163.06;5067791;28;20145;-69
2022/04/22 04:25:47;;;;;;;27.25;17.38;;;;;;;8.73;79.84;95156.06;5066875;28;20026;-70
2022/04/22 04:28:14;;;;;;;32.83;21.63;;;;;;;8.72;79.70;95159.72;5067154;28;20043;-70
2022/04/22 04:30:40;;;;;;;34.92;22.73;;;;;;;8.72;79.69;95154.38;5067393;28;20020;-70
2022/04/22 04:33:06;;;;;;;28.38;18.58;;;;;;;8.73;79.80;95161.41;5066145;28;20052;-70
2022/04/22 04:35:31;;;;;;;28.08;16.42;;;;;;;8.81;78.99;95170.38;5067318;28;20024;-70
2022/04/22 04:37:57;;;;;;;24.52;16.45;;;;;;;8.73;79.25;95160.56;5066487;28;20479;-69
2022/04/22 04:40:23;;;;;;;22.55;16.00;;;;;;;8.74;79.35;95155.03;5067009;28;20177;-69
2022/04/22 04:42:48;;;;;;;23.73;15.85;;;;;;;8.71;79.09;95158.06;5066646;28;20055;-69
2022/04/22 04:45:13;;;;;;;19.45;14.73;;;;;;;8.68;79.15;95158.41;5066783;28;20043;-70
2022/04/22 04:47:43;;;;;;;25.15;15.65;;;;;;;8.71;79.63;95147.34;5066794;28;20368;-70
2022/04/22 04:50:09;;;;;;;21.85;15.30;;;;;;;8.72;79.78;95169.59;5066259;28;20051;-70
2022/04/22 04:52:37;;;;;;;21.23;15.57;;;;;;;8.72;79.44;95153.56;5066885;28;20024;-69
2022/04/22 04:55:09;;;;;;;22.13;15.90;;;;;;;8.68;79.55;95174.44;5066460;28;20028;-70
2022/04/22 04:57:35;;;;;;;26.17;17.70;;;;;;;8.69;80.02;95160.06;5066740;28;20025;-70
2022/04/22 05:00:01;;;;;;;25.25;18.27;;;;;;;8.72;80.10;95158.91;5065821;28;20032;-68
2022/04/22 05:02:26;;;;;;;25.35;17.92;;;;;;;8.70;80.42;95155.56;5066397;28;20020;-69
2022/04/22 05:04:52;;;;;;;26.35;16.98;;;;;;;8.76;79.70;95146.84;5066355;28;20051;-69
2022/04/22 05:07:18;;;;;;;22.48;16.00;;;;;;;8.81;79.30;95146.31;5065568;28;20494;-70
2022/04/22 05:09:43;;;;;;;26.35;16.95;;;;;;;8.81;79.52;95119.56;5066076;28;20483;-69
2022/04/22 05:12:10;;;;;;;22.77;15.77;;;;;;;8.84;79.10;95135.28;5065992;28;20028;-69
2022/04/22 05:14:36;;;;;;;22.20;15.63;;;;;;;8.88;78.87;95120.56;5066270;28;20027;-70
2022/04/22 05:17:01;;;;;;;22.00;14.90;;;;;;;8.83;78.16;95118.41;5065349;28;20025;-69
2022/04/22 05:19:27;;;;;;;23.42;14.93;;;;;;;8.93;77.76;95112.03;5066159;28;20035;-70
2022/04/22 05:21:52;;;;;;;21.00;13.40;;;;;;;8.98;77.10;95110.47;5065849;28;20028;-70
2022/04/22 05:24:17;;;;;;;22.30;14.93;;;;;;;8.94;77.99;95094.94;5065777;28;20537;-70
2022/04/22 05:26:43;;;;;;;21.58;14.13;;;;;;;8.95;77.70;95078.72;5066036;28;20036;-69
2022/04/22 05:32:36;;;;;;;23.40;14.93;;;;;;;8.97;77.88;95082.06;5065231;28;20036;-69
2022/04/22 05:34:38;;;;;;;22.35;15.77;;;;;;;8.92;77.80;95064.88;5047319;28;20048;-69
2022/04/22 05:37:03;;;;;;;21.63;15.70;;;;;;;8.95;77.34;95041.28;5065858;28;20043;-69
2022/04/22 05:39:29;;;;;;;19.73;15.73;;;;;;;8.98;77.14;95034.75;5065463;28;20062;-71
2022/04/22 05:41:54;;;;;;;22.60;16.67;;;;;;;9.01;77.12;95024.50;5065478;28;20031;-70
2022/04/22 05:44:20;;;;;;;22.40;15.50;;;;;;;9.00;76.56;94980.06;5065627;28;20403;-70
2022/04/22 05:46:45;;;;;;;19.80;14.00;;;;;;;9.07;75.72;94976.66;5065067;28;20440;-69
2022/04/22 05:49:10;;;;;;;21.00;14.00;;;;;;;9.14;75.74;94980.31;5065760;28;20050;-70
2022/04/22 05:51:36;;;;;;;20.10;15.35;;;;;;;9.21;76.19;94973.22;5065370;28;20033;-70
2022/04/22 05:54:01;;;;;;;20.38;14.65;;;;;;;9.26;75.50;94970.84;5065558;28;20430;-70
2022/04/22 05:56:27;;;;;;;19.50;14.20;;;;;;;9.28;75.53;94970.66;5064915;28;20028;-69
2022/04/22 05:58:52;;;;;;;25.40;15.00;;;;;;;9.37;75.27;94968.72;5065211;28;20032;-71
2022/04/22 06:01:17;;;;;;;22.55;15.57;;;;;;;9.44;75.37;94967.00;5065034;28;20035;-70
2022/04/22 06:03:43;;;;;;;19.88;15.43;;;;;;;9.47;74.95;94980.03;5064784;28;20032;-69
2022/04/22 06:06:08;;;;;;;20.75;16.05;;;;;;;9.47;74.37;94969.31;5065195;28;20025;-70
2022/04/22 06:11:17;;;;;;;23.63;16.58;;;;;;;9.42;76.33;94976.22;5065105;28;20091;-70
2022/04/22 06:13:47;;;;;;;22.17;15.18;;;;;;;9.51;73.94;94967.94;5065207;28;20044;-69
2022/04/22 06:16:12;;;;;;;20.35;13.73;;;;;;;9.59;73.43;94968.88;5064988;28;20032;-70
2022/04/22 06:18:37;;;;;;;20.80;12.43;;;;;;;9.54;73.46;94974.78;5065584;28;20090;-69
2022/04/22 06:21:03;;;;;;;20.50;12.93;;;;;;;9.69;72.34;94963.28;5063913;28;20181;-69
2022/04/22 06:23:28;;;;;;;18.23;13.00;;;;;;;9.76;71.89;94956.16;5065172;28;20016;-69
2022/04/22 06:25:53;;;;;;;18.50;12.18;;;;;;;9.81;71.88;94977.03;5064661;28;20032;-70
2022/04/22 06:28:19;;;;;;;21.98;13.23;;;;;;;9.85;72.70;94965.75;5065198;28;20514;-69
2022/04/22 06:30:46;;;;;;;17.33;11.52;;;;;;;10.00;71.52;94976.47;5046661;28;20027;-69
2022/04/22 06:33:12;;;;;;;15.52;11.35;;;;;;;10.09;70.80;94976.41;5064710;28;20097;-69
2022/04/22 06:35:38;;;;;;;19.75;11.07;;;;;;;10.47;68.83;94984.34;5064751;28;20527;-70
2022/04/22 06:38:04;;;;;;;14.50;11.00;;;;;;;10.69;69.19;94984.38;5064792;28;20044;-69
2022/04/22 06:45:59;;;;;;;16.88;11.32;;;;;;;10.96;68.96;94992.72;5065454;28;20047;-70
2022/04/22 06:48:33;;;;;;;14.25;10.15;;;;;;;11.00;67.74;94983.28;5064709;28;20036;-70
2022/04/22 06:50:59;;;;;;;17.83;10.50;;;;;;;11.25;67.14;94990.13;5064595;28;20135;-69
2022/04/22 06:53:25;;;;;;;14.35;9.63;;;;;;;11.46;65.93;94977.72;5064865;28;20031;-70
2022/04/22 06:55:52;;;;;;;12.57;8.65;;;;;;;11.61;65.08;94978.44;5063861;28;20020;-68
2022/04/22 06:58:18;;;;;;;11.90;9.20;;;;;;;11.88;65.30;94969.75;5064866;28;20036;-70
2022/04/22 07:00:44;;;;;;;12.20;9.07;;;;;;;11.95;64.80;94967.94;5064087;28;20471;-69
2022/04/22 07:03:10;;;;;;;14.43;9.23;;;;;;;12.21;63.91;94961.06;5064733;28;20025;-69
2022/04/22 07:05:36;;;;;;;13.00;8.68;;;;;;;12.34;63.18;94952.25;5064019;28;20040;-73
2022/04/22 07:08:03;;;;;;;12.00;8.10;;;;;;;12.42;62.56;94956.63;5064979;28;20025;-70
2022/04/22 07:10:32;;;;;;;10.80;8.40;;;;;;;12.47;63.12;94967.63;5046511;28;20131;-70
2022/04/22 07:12:58;;;;;;;11.85;7.95;;;;;;;12.70;61.09;94950.28;5064267;28;20024;-70
2022/04/22 07:15:24;;;;;;;12.52;8.23;;;;;;;12.95;60.37;94954.28;5064719;28;20094;-70
2022/04/22 07:17:50;;;;;;;11.70;6.78;;;;;;;13.02;59.80;94952.47;5064187;28;20032;-68
2022/04/22 07:20:16;;;;;;;11.18;7.85;;;;;;;12.91;59.51;94937.75;5064590;28;20576;-69
2022/04/22 07:22:42;;;;;;;10.07;7.43;;;;;;;13.03;61.13;94951.41;5064243;28;20082;-70
2022/04/22 07:25:09;;;;;;;11.52;7.22;;;;;;;13.09;59.05;94949.78;5064203;28;20032;-70
2022/04/22 07:27:36;;;;;;;12.18;7.75;;;;;;;13.25;59.05;94948.53;5064423;28;20048;-70
2022/04/22 07:30:07;;;;;;;10.32;7.22;;;;;;;13.37;58.58;94935.28;5064111;28;20048;-71
2022/04/22 07:32:35;;;;;;;9.88;7.05;;;;;;;13.57;58.85;94934.50;5065876;28;20127;-70
2022/04/22 07:35:00;;;;;;;9.23;7.03;;;;;;;13.64;57.21;94956.88;5067308;28;20060;-69
2022/04/22 07:37:26;;;;;;;11.05;6.95;;;;;;;13.74;58.87;94947.53;5067904;28;20031;-70
2022/04/22 07:39:52;;;;;;;8.27;6.55;;;;;;;13.62;57.22;94947.34;5067239;28;20652;-69
2022/04/22 07:42:18;;;;;;;7.57;6.22;;;;;;;13.75;57.09;94941.94;5068308;28;20456;-70
2022/04/22 07:47:32;;;;;;;8.07;6.53;;;;;;;13.85;57.43;94933.41;5067470;28;20031;-69
2022/04/22 07:49:58;;;;;;;9.20;6.15;;;;;;;14.10;56.95;94935.44;5067716;28;20025;-69
2022/04/22 07:52:24;;;;;;;9.20;5.60;;;;;;;14.20;55.31;94935.81;5067158;28;20033;-69
2022/04/22 07:54:49;;;;;;;5.68;4.40;;;;;;;14.21;54.36;94931.28;5067699;28;20437;-69
2022/04/22 07:57:15;;;;;;;2.95;2.55;;;;;;;14.26;54.52;94936.84;5067279;28;20523;-70
2022/04/22 07:59:41;;;;;;;5.90;5.30;;;;;;;14.34;54.63;94942.03;5067501;28;20037;-69
2022/04/22 08:02:06;;;;;;;10.85;6.93;;;;;;;14.24;55.41;94938.09;5067206;28;20385;-69
2022/04/22 08:04:32;;;;;;;6.15;5.40;;;;;;;13.95;55.49;94941.91;5067122;28;20031;-70
2022/04/22 08:06:57;;;;;;;9.35;6.30;;;;;;;13.91;56.32;94951.44;5067979;28;20040;-70
2022/04/22 08:09:23;;;;;;;8.68;5.68;;;;;;;14.08;56.19;94948.31;5067050;28;20461;-72
2022/04/22 08:11:49;;;;;;;7.40;6.10;;;;;;;14.17;55.75;94965.91;5067566;28;20044;-69
2022/04/22 08:14:15;;;;;;;9.82;6.82;;;;;;;14.00;54.95;94978.19;5048953;28;20033;-70
2022/04/22 08:16:40;;;;;;;7.85;6.47;;;;;;;14.01;55.35;94982.56;5067415;28;20097;-70
2022/04/22 08:19:07;;;;;;;7.78;6.25;;;;;;;14.01;55.38;94963.69;5066875;28;20035;-70
2022/04/22 08:21:33;;;;;;;7.70;5.60;;;;;;;14.26;55.17;94952.19;5049106;28;20748;-69
2022/04/22 08:24:01;;;;;;;10.30;6.18;;;;;;;14.23;56.15;94952.63;5067547;28;20074;-69
2022/04/22 08:26:28;;;;;;;7.20;5.97;;;;;;;14.53;56.11;94941.31;5066573;28;20013;-70
2022/04/22 08:28:54;;;;;;;8.93;5.97;;;;;;;14.45;54.56;94924.34;5067033;28;20020;-70
2022/04/22 08:31:19;;;;;;;10.27;5.75;;;;;;;14.77;55.54;94930.81;5066564;28;20028;-70
2022/04/22 08:33:47;;;;;;;7.78;5.70;;;;;;;14.83;54.98;94930.81;5066754;28;20052;-70
2022/04/22 08:36:13;;;;;;;7.50;5.88;;;;;;;15.04;53.89;94930.72;5066433;28;20024;-69
2022/04/22 08:38:38;;;;;;;9.63;5.85;;;;;;;15.16;52.71;94918.16;5065740;28;20056;-70
2022/04/22 08:41:04;;;;;;;8.73;5.53;;;;;;;15.18;52.81;94897.16;5066597;28;20082;-69
2022/04/22 08:43:30;;;;;;;8.35;5.38;;;;;;;15.27;52.73;94902.28;5065580;28;20028;-70
2022/04/22 08:45:56;;;;;;;5.95;4.97;;;;;;;15.43;53.07;94901.75;5067006;28;20031;-69
2022/04/22 08:51:08;;;;;;;9.05;5.03;;;;;;;15.75;52.46;94897.31;5067059;28;20035;-69
2022/04/22 08:53:34;;;;;;;7.30;5.07;;;;;;;15.72;52.01;94892.34;5031716;28;20036;-70
2022/04/22 08:56:02;;;;;;;6.75;5.20;;;;;;;15.79;52.06;94891.25;5032295;28;20471;-70
2022/04/22 08:58:27;;;;;;;8.15;4.82;;;;;;;15.94;50.88;94898.16;5048653;28;20036;-69
2022/04/22 09:00:54;;;;;;;9.98;5.40;;;;;;;16.09;52.80;94892.41;5065967;28;20072;-70
2022/04/22 09:03:21;;;;;;;8.10;5.40;;;;;;;16.24;51.27;94889.31;5048510;28;20029;-71
2022/04/22 09:05:47;;;;;;;8.75;4.90;;;;;;;16.35;51.87;94876.91;5065894;28;20047;-71
2022/04/22 09:08:12;;;;;;;7.95;4.63;;;;;;;16.45;50.60;94868.25;5066375;28;20430;-69
2022/04/22 09:10:38;;;;;;;7.22;5.30;;;;;;;16.32;51.34;94869.25;5047979;28;20465;-70
2022/04/22 09:13:09;;;;;;;7.35;4.70;;;;;;;16.46;50.72;94850.16;5066558;28;20033;-70
2022/04/22 09:15:35;;;;;;;10.13;5.38;;;;;;;16.56;49.82;94853.97;5064628;28;20406;-70
2022/04/22 09:18:12;;;;;;;9.25;5.47;;;;;;;16.73;50.89;94868.72;5031355;28;20036;-69
2022/04/22 09:20:37;;;;;;;8.73;4.70;;;;;;;16.84;49.70;94861.69;5066192;28;20016;-70
2022/04/22 09:23:20;;;;;;;6.22;4.63;;;;;;;16.76;48.92;94862.84;5047998;28;20411;-71
2022/04/22 09:25:45;;;;;;;12.80;5.22;;;;;;;16.90;49.47;94867.03;5050820;28;20089;-70
2022/04/22 09:28:11;;;;;;;9.23;4.95;;;;;;;17.03;49.09;94867.88;5065371;28;20032;-69
2022/04/22 09:30:36;;;;;;;10.68;5.45;;;;;;;17.05;51.49;94855.75;5065782;28;20024;-70
2022/04/22 09:33:02;;;;;;;6.03;4.13;;;;;;;17.02;48.68;94868.94;5065389;28;20044;-70
2022/04/22 09:35:28;;;;;;;10.10;5.35;;;;;;;16.95;47.90;94849.25;5047439;28;20028;-71
2022/04/22 09:43:35;;;;;;;8.38;4.53;;;;;;;17.11;49.00;94854.03;5065558;28;20031;-70
2022/04/22 09:46:01;;;;;;;5.93;4.20;;;;;;;16.95;49.21;94835.69;5065686;28;20024;-69
2022/04/22 09:48:27;;;;;;;7.25;5.00;;;;;;;16.89;49.53;94841.00;5064796;28;20198;-69
2022/04/22 09:50:53;;;;;;;6.90;5.60;;;;;;;16.97;49.17;94853.38;5031242;28;20159;-69
2022/04/22 09:53:33;;;;;;;11.05;4.60;;;;;;;17.00;50.23;94833.13;5064841;28;20406;-69
2022/04/22 09:56:08;;;;;;;7.93;4.75;;;;;;;17.14;51.16;94828.34;5065466;28;20436;-70
2022/04/22 09:58:34;;;;;;;8.52;4.38;;;;;;;17.00;48.33;94835.84;5046839;28;20488;-70
2022/04/22 10:01:01;;;;;;;6.13;3.97;;;;;;;16.85;48.25;94818.13;5065519;28;20025;-71
2022/04/22 10:03:34;;;;;;;6.10;4.38;;;;;;;16.85;48.28;94806.47;5065157;28;20028;-69
2022/04/22 10:06:01;;;;;;;9.48;5.03;;;;;;;16.83;49.70;94808.59;5065170;28;20016;-69
2022/04/22 10:08:30;;;;;;;8.77;4.68;;;;;;;16.92;49.76;94790.94;5065157;28;20028;-69
2022/04/22 10:10:58;;;;;;;7.10;4.60;;;;;;;16.89;49.67;94784.13;5064680;28;20174;-70
2022/04/22 10:13:25;;;;;;;7.88;5.10;;;;;;;16.91;50.13;94790.13;5065099;28;20475;-71
2022/04/22 10:15:51;;;;;;;7.07;4.80;;;;;;;16.78;49.98;94779.50;5064828;28;20020;-69
2022/04/22 10:18:16;;;;;;;9.77;4.65;;;;;;;16.70;49.71;94783.38;5030569;28;20035;-69
2022/04/22 10:20:44;;;;;;;6.90;4.20;;;;;;;16.85;49.61;94780.22;5064969;28;20600;-70
2022/04/22 10:23:10;;;;;;;7.13;4.50;;;;;;;17.00;50.63;94770.81;5064763;28;20033;-70
2022/04/22 10:25:35;;;;;;;11.10;5.05;;;;;;;17.04;49.30;94767.41;5065001;28;20036;-70
2022/04/22 10:28:03;;;;;;;8.60;4.50;;;;;;;16.97;50.31;94768.59;5046746;28;20025;-70
2022/04/22 10:30:29;;;;;;;8.55;4.50;;;;;;;17.13;50.32;94765.22;5046899;28;20885;-68
2022/04/22 10:32:54;;;;;;;8.38;5.18;;;;;;;17.18;49.52;94762.59;5026316;28;20049;-70
2022/04/22 10:35:23;;;;;;;10.38;4.70;;;;;;;17.34;49.08;94770.28;5043752;28;20495;-69
2022/04/22 10:37:49;;;;;;;10.32;5.18;;;;;;;17.38;48.72;94763.31;5044691;28;20561;-70
2022/04/22 10:40:22;;;;;;;7.05;4.60;;;;;;;17.40;48.68;94758.50;5044699;28;20116;-70
2022/04/22 10:42:48;;;;;;;8.82;4.97;;;;;;;17.49;49.45;94758.97;5044881;28;20025;-70
2022/04/22 10:47:58;;;;;;;11.15;5.00;;;;;;;17.54;47.26;94750.91;5044064;28;20090;-70
2022/04/22 10:50:34;;;;;;;8.82;4.85;;;;;;;17.57;47.45;94764.03;5043310;28;20033;-70
2022/04/22 10:53:05;;;;;;;10.75;4.32;;;;;;;17.58;48.08;94760.25;5043589;28;20569;-70
2022/04/22 10:55:33;;;;;;;10.23;4.80;;;;;;;17.67;48.94;94750.69;5042617;28;20024;-71
2022/04/22 10:58:14;;;;;;;6.72;4.25;;;;;;;17.82;48.03;94746.63;5043882;28;20503;-71
2022/04/22 11:00:41;;;;;;;9.25;4.28;;;;;;;17.90;47.34;94754.41;5044890;28;20037;-69
2022/04/22 11:03:36;;;;;;;6.72;3.90;;;;;;;18.00;47.67;94742.09;5044113;28;20387;-70
2022/04/22 11:06:02;;;;;;;7.03;4.50;;;;;;;18.03;47.50;94736.19;5043235;28;20040;-69
2022/04/22 11:08:38;;;;;;;6.90;4.38;;;;;;;18.03;47.87;94731.59;5048492;28;20025;-70
2022/04/22 11:11:08;;;;;;;6.25;3.90;;;;;;;18.06;47.53;94735.72;5046827;28;20048;-69
2022/04/22 11:13:38;;;;;;;6.10;4.65;;;;;;;18.16;47.21;94732.41;5049153;28;20055;-70
2022/04/22 11:16:32;;;;;;;7.68;4.00;;;;;;;18.21;46.77;94724.38;5047855;28;20472;-71
2022/04/22 11:19:10;;;;;;;6.93;3.75;;;;;;;18.27;46.40;94715.25;5048538;28;20036;-70
2022/04/22 11:21:36;;;;;;;8.45;4.35;;;;;;;18.27;47.11;94706.28;5048745;28;20036;-70
2022/04/22 11:24:09;;;;;;;8.73;4.50;;;;;;;18.42;47.33;94708.44;5047605;28;20043;-69
2022/04/22 11:26:35;;;;;;;6.95;3.70;;;;;;;18.46;45.94;94712.31;5049352;28;20029;-69
2022/04/22 11:29:00;;;;;;;10.48;4.32;;;;;;;18.44;45.93;94706.31;5047489;28;20032;-70
2022/04/22 11:31:26;;;;;;;6.57;4.10;;;;;;;18.57;46.61;94710.59;5030812;28;20033;-71
2022/04/22 11:33:54;;;;;;;7.30;3.85;;;;;;;18.63;47.04;94697.94;5029662;28;20079;-70
2022/04/22 11:36:20;;;;;;;7.38;4.07;;;;;;;18.65;45.88;94691.19;5048247;28;20086;-70
2022/04/22 11:38:47;;;;;;;7.45;3.80;;;;;;;18.72;46.94;94698.34;5047997;28;20025;-70
2022/04/22 11:41:13;;;;;;;6.35;3.78;;;;;;;18.82;45.96;94703.09;5047437;28;20021;-70
2022/04/22 11:43:38;;;;;;;8.88;3.80;;;;;;;18.88;45.95;94694.81;5048809;28;20094;-70
2022/04/22 11:46:04;;;;;;;6.35;3.65;;;;;;;18.96;44.83;94673.72;5047153;28;20017;-70
2022/04/22 11:48:30;;;;;;;6.35;3.72;;;;;;;18.97;46.78;94669.94;5063962;28;20032;-71
2022/04/22 11:50:57;;;;;;;7.03;4.65;;;;;;;18.89;46.05;94666.56;5047258;28;20507;-69
2022/04/22 11:53:24;;;;;;;5.22;3.50;;;;;;;19.04;44.87;94659.69;5048264;28;20021;-71
2022/04/22 11:55:49;;;;;;;6.72;3.83;;;;;;;19.15;44.94;94661.53;5047321;28;20025;-70
2022/04/22 11:58:16;;;;;;;6.75;4.55;;;;;;;19.33;43.96;94656.06;5047608;28;20025;-69
2022/04/22 12:06:14;;;;;;;5.68;3.67;;;;;;;19.68;42.57;94654.88;5047846;28;20076;-70
2022/04/22 12:08:50;;;;;;;6.90;4.60;;;;;;;19.75;41.92;94660.09;5046204;28;20064;-70
2022/04/22 12:11:18;;;;;;;7.43;3.90;;;;;;;19.81;41.07;94656.38;5047017;28;20025;-70
2022/04/22 12:13:47;;;;;;;7.05;4.22;;;;;;;19.89;40.98;94647.72;5046810;28;20025;-71
2022/04/22 12:16:23;;;;;;;7.82;4.20;;;;;;;20.00;44.28;94653.28;5046338;28;20025;-70
2022/04/22 12:18:53;;;;;;;7.97;4.22;;;;;;;20.00;42.49;94647.84;5048081;28;20021;-70
2022/04/22 12:21:19;;;;;;;6.80;4.60;;;;;;;19.92;42.26;94632.81;5046866;28;20029;-69